createdAt,value
2022-12-12T00:02:10.482Z,26.40
2022-12-12T00:04:38.197Z,27.40
2022-12-12T00:07:05.706Z,27.55
2022-12-12T00:09:33.789Z,27.48
2022-12-12T00:12:01.216Z,26.55
2022-12-12T00:14:28.626Z,25.67
2022-12-12T00:16:56.045Z,26.40
2022-12-12T00:19:23.507Z,27.70
2022-12-12T00:21:50.983Z,26.73
2022-12-12T00:24:18.459Z,28.48
2022-12-12T00:26:45.878Z,26.70
2022-12-12T00:29:13.360Z,25.33
2022-12-12T00:31:41.838Z,27.27
2022-12-12T00:34:10.200Z,28.20
2022-12-12T00:36:37.607Z,24.48
2022-12-12T00:39:05.394Z,29.42
2022-12-12T00:41:32.833Z,29.88
2022-12-12T00:44:00.319Z,29.25
2022-12-12T00:46:27.781Z,32.33
2022-12-12T00:48:58.313Z,33.22
2022-12-12T00:51:26.597Z,28.98
2022-12-12T00:53:55.885Z,30.58
2022-12-12T00:56:23.960Z,33.50
2022-12-12T00:58:51.892Z,32.72
2022-12-12T01:01:21.167Z,29.00
2022-12-12T01:03:48.728Z,31.33
2022-12-12T01:06:16.281Z,27.75
2022-12-12T01:08:43.709Z,26.77
2022-12-12T01:11:11.668Z,27.90
2022-12-12T01:13:39.790Z,28.42
2022-12-12T01:16:08.987Z,27.58
2022-12-12T01:18:36.838Z,28.27
2022-12-12T01:21:04.973Z,29.90
2022-12-12T01:23:32.452Z,32.00
2022-12-12T01:26:00.914Z,32.10
2022-12-12T01:28:28.465Z,30.17
2022-12-12T01:30:56.033Z,30.60
2022-12-12T01:33:23.545Z,31.23
2022-12-12T01:35:51.159Z,30.67
2022-12-12T01:38:18.714Z,29.00
2022-12-12T01:40:46.189Z,30.40
2022-12-12T01:43:14.357Z,27.23
2022-12-12T01:45:56.793Z,28.13
2022-12-12T01:48:26.181Z,27.27
2022-12-12T01:50:54.042Z,28.85
2022-12-12T01:53:21.810Z,26.73
2022-12-12T01:55:50.277Z,23.15
2022-12-12T01:58:18.045Z,30.70
2022-12-12T02:00:45.928Z,26.00
2022-12-12T02:03:13.442Z,26.08
2022-12-12T02:05:43.405Z,25.70
2022-12-12T02:08:11.711Z,25.35
2022-12-12T02:10:39.354Z,27.15
2022-12-12T02:13:09.290Z,24.58
2022-12-12T02:15:42.992Z,24.77
2022-12-12T02:18:29.516Z,23.23
2022-12-12T02:21:09.234Z,25.83
2022-12-12T02:23:39.522Z,24.60
2022-12-12T02:26:22.129Z,25.67
2022-12-12T02:29:08.375Z,24.35
2022-12-12T02:31:41.496Z,25.77
2022-12-12T02:34:19.781Z,23.95
2022-12-12T02:36:47.571Z,25.25
2022-12-12T02:39:21.005Z,27.02
2022-12-12T02:41:51.458Z,24.27
2022-12-12T02:44:25.066Z,24.27
2022-12-12T02:47:01.975Z,23.73
2022-12-12T02:49:29.605Z,25.52
2022-12-12T02:51:58.164Z,26.20
2022-12-12T02:54:25.584Z,24.13
2022-12-12T02:56:57.520Z,25.20
2022-12-12T02:59:34.071Z,25.52
2022-12-12T03:02:20.320Z,23.90
2022-12-12T03:05:06.653Z,21.90
2022-12-12T03:07:52.824Z,23.95
2022-12-12T03:10:20.354Z,24.35
2022-12-12T03:13:09.533Z,22.30
2022-12-12T03:15:44.778Z,22.95
2022-12-12T03:18:17.614Z,22.77
2022-12-12T03:20:48.871Z,23.23
2022-12-12T03:23:18.730Z,23.08
2022-12-12T03:25:50.557Z,24.98
2022-12-12T03:28:27.337Z,23.05
2022-12-12T03:30:56.502Z,22.58
2022-12-12T03:33:30.079Z,23.27
2022-12-12T03:36:02.194Z,22.90
2022-12-12T03:38:32.615Z,23.20
2022-12-12T03:41:02.451Z,23.08
2022-12-12T03:43:41.197Z,26.60
2022-12-12T03:46:15.054Z,23.52
2022-12-12T03:48:44.817Z,25.25
2022-12-12T03:51:13.870Z,24.52
2022-12-12T03:53:53.566Z,27.45
2022-12-12T03:56:32.386Z,23.58
2022-12-12T03:59:07.520Z,25.92
2022-12-12T04:01:43.414Z,22.75
2022-12-12T04:04:30.351Z,25.50
2022-12-12T04:07:03.869Z,25.50
2022-12-12T04:09:50.409Z,25.02
2022-12-12T04:12:42.890Z,26.95
2022-12-12T04:15:19.548Z,25.70
2022-12-12T04:17:56.074Z,27.73
2022-12-12T04:20:45.534Z,23.42
2022-12-12T04:23:19.055Z,27.27
2022-12-12T04:26:28.059Z,25.95
2022-12-12T04:29:04.550Z,24.83
2022-12-12T04:31:33.096Z,25.33
2022-12-12T04:34:04.894Z,22.73
2022-12-12T04:36:33.147Z,24.05
2022-12-12T04:39:01.372Z,23.58
2022-12-12T04:41:29.740Z,24.75
2022-12-12T04:43:57.316Z,23.05
2022-12-12T04:46:27.942Z,24.70
2022-12-12T04:49:00.590Z,26.17
2022-12-12T04:51:30.761Z,26.52
2022-12-12T04:54:10.520Z,24.77
2022-12-12T04:56:39.609Z,24.67
2022-12-12T04:59:07.529Z,24.88
2022-12-12T05:01:52.889Z,24.13
2022-12-12T05:04:34.334Z,24.17
2022-12-12T05:07:07.238Z,22.55
2022-12-12T05:09:35.389Z,27.63
2022-12-12T05:12:02.920Z,24.73
2022-12-12T05:14:31.450Z,24.33
2022-12-12T05:17:10.518Z,22.08
2022-12-12T05:19:37.955Z,29.17
2022-12-12T05:22:05.413Z,26.42
2022-12-12T05:24:32.852Z,23.58
2022-12-12T05:27:00.817Z,28.45
2022-12-12T05:29:28.321Z,27.10
2022-12-12T05:31:55.764Z,29.80
2022-12-12T05:34:23.149Z,28.00
2022-12-12T05:36:51.136Z,25.30
2022-12-12T05:39:18.529Z,29.02
2022-12-12T05:41:45.887Z,23.92
2022-12-12T05:44:13.368Z,27.52
2022-12-12T05:46:40.816Z,26.25
2022-12-12T05:49:08.370Z,28.73
2022-12-12T05:51:35.795Z,26.83
2022-12-12T05:54:03.248Z,26.25
2022-12-12T05:56:30.715Z,25.60
2022-12-12T05:58:58.179Z,23.65
2022-12-12T06:01:25.597Z,28.25
2022-12-12T06:03:53.048Z,24.95
2022-12-12T06:06:21.781Z,22.98
2022-12-12T06:08:49.253Z,24.52
2022-12-12T06:11:16.686Z,21.63
2022-12-12T06:13:44.117Z,23.77
2022-12-12T06:16:13.552Z,23.42
2022-12-12T06:18:40.990Z,24.95
2022-12-12T06:21:09.354Z,23.45
2022-12-12T06:23:37.688Z,22.83
2022-12-12T06:26:05.700Z,21.95
2022-12-12T06:28:33.290Z,24.67
2022-12-12T06:31:00.760Z,22.90
2022-12-12T06:33:28.654Z,21.63
2022-12-12T06:36:03.369Z,22.95
2022-12-12T06:38:31.490Z,24.55
2022-12-12T06:40:59.024Z,25.98
2022-12-12T06:43:26.709Z,26.10
2022-12-12T06:45:54.161Z,25.58
2022-12-12T06:48:21.606Z,24.15
2022-12-12T06:50:48.992Z,25.45
2022-12-12T06:53:16.762Z,26.95
2022-12-12T06:55:44.670Z,28.42
2022-12-12T06:58:12.318Z,28.77
2022-12-12T07:00:39.742Z,28.73
2022-12-12T07:03:07.283Z,30.92
2022-12-12T07:05:34.803Z,31.75
2022-12-12T07:08:03.012Z,30.33
2022-12-12T07:10:31.281Z,28.55
2022-12-12T07:12:58.694Z,26.38
2022-12-12T07:15:26.086Z,23.23
2022-12-12T07:17:53.937Z,23.65
2022-12-12T07:20:21.532Z,23.25
2022-12-12T07:22:48.988Z,24.95
2022-12-12T07:25:16.402Z,22.42
2022-12-12T07:27:43.956Z,22.00
2022-12-12T07:30:12.509Z,26.10
2022-12-12T07:32:40.005Z,26.98
2022-12-12T07:35:07.545Z,24.38
2022-12-12T07:37:35.102Z,24.17
2022-12-12T07:40:02.610Z,22.60
2022-12-12T07:42:30.081Z,19.52
2022-12-12T07:44:57.540Z,19.98
2022-12-12T07:47:24.949Z,23.08
2022-12-12T07:49:52.461Z,19.98
2022-12-12T07:52:19.813Z,19.08
2022-12-12T07:54:47.307Z,18.92
2022-12-12T07:57:14.722Z,20.45
2022-12-12T07:59:42.141Z,22.73
2022-12-12T08:02:10.660Z,23.75
2022-12-12T08:04:38.352Z,21.50
2022-12-12T08:07:08.591Z,17.85
2022-12-12T08:09:36.997Z,18.10
2022-12-12T08:12:04.618Z,17.98
2022-12-12T08:14:32.319Z,19.88
2022-12-12T08:16:59.961Z,17.70
2022-12-12T08:19:27.347Z,15.27
2022-12-12T08:21:54.753Z,17.05
2022-12-12T08:24:22.857Z,16.05
2022-12-12T08:26:51.325Z,16.98
2022-12-12T08:29:18.812Z,15.73
2022-12-12T08:31:46.303Z,17.70
2022-12-12T08:34:14.005Z,16.17
2022-12-12T08:36:41.436Z,16.25
2022-12-12T08:39:10.794Z,16.30
2022-12-12T08:41:39.708Z,18.02
2022-12-12T08:44:07.947Z,17.25
2022-12-12T08:46:35.903Z,19.60
2022-12-12T08:49:03.534Z,15.32
2022-12-12T08:51:30.904Z,17.75
2022-12-12T08:53:58.587Z,15.48
2022-12-12T08:56:26.022Z,15.77
2022-12-12T08:58:53.511Z,16.20
2022-12-12T09:01:21.886Z,16.48
2022-12-12T09:03:50.473Z,19.65
2022-12-12T09:06:18.203Z,16.15
2022-12-12T09:08:45.769Z,14.70
2022-12-12T09:11:13.464Z,16.75
2022-12-12T09:13:41.353Z,18.92
2022-12-12T09:16:09.411Z,16.33
2022-12-12T09:18:37.024Z,16.70
2022-12-12T09:21:04.524Z,18.25
2022-12-12T09:23:31.951Z,19.40
2022-12-12T09:25:59.468Z,19.30
2022-12-12T09:28:27.298Z,18.85
2022-12-12T09:30:55.121Z,19.98
2022-12-12T09:33:22.539Z,18.70
2022-12-12T09:35:57.401Z,18.70
2022-12-12T09:38:24.978Z,18.48
2022-12-12T09:40:54.346Z,19.38
2022-12-12T09:43:30.007Z,20.98
2022-12-12T09:45:57.885Z,18.73
2022-12-12T09:48:28.046Z,21.38
2022-12-12T09:50:55.594Z,19.58
2022-12-12T09:53:23.967Z,19.55
2022-12-12T09:56:06.694Z,17.60
2022-12-12T09:58:46.867Z,17.50
2022-12-12T10:01:26.685Z,20.15
2022-12-12T10:04:02.309Z,18.67
2022-12-12T10:06:37.540Z,18.05
2022-12-12T10:09:25.115Z,18.20
2022-12-12T10:11:55.085Z,17.38
2022-12-12T10:14:37.816Z,22.65
2022-12-12T10:17:08.089Z,15.68
2022-12-12T10:19:40.120Z,17.10
2022-12-12T10:22:15.045Z,19.45
2022-12-12T10:24:47.337Z,16.15
2022-12-12T10:27:15.699Z,18.98
2022-12-12T10:29:46.942Z,18.15
2022-12-12T10:32:32.949Z,16.25
2022-12-12T10:35:00.378Z,15.52
2022-12-12T10:37:43.340Z,15.80
2022-12-12T10:40:31.042Z,19.42
2022-12-12T10:43:01.329Z,15.80
2022-12-12T10:45:31.945Z,14.95
2022-12-12T10:47:59.830Z,17.02
2022-12-12T10:50:47.644Z,16.80
2022-12-12T10:53:15.407Z,16.75
2022-12-12T10:55:42.795Z,18.95
2022-12-12T10:58:10.292Z,17.30
2022-12-12T11:00:42.420Z,18.48
2022-12-12T11:03:15.484Z,16.42
2022-12-12T11:05:43.068Z,15.27
2022-12-12T11:08:20.112Z,14.25
2022-12-12T11:10:59.461Z,14.35
2022-12-12T11:13:26.989Z,12.30
2022-12-12T11:16:02.375Z,13.23
2022-12-12T11:18:30.180Z,11.25
2022-12-12T11:21:03.766Z,12.50
2022-12-12T11:23:32.266Z,10.73
2022-12-12T11:26:19.983Z,13.40
2022-12-12T11:28:52.521Z,13.20
2022-12-12T11:31:22.691Z,13.15
2022-12-12T11:33:54.710Z,12.35
2022-12-12T11:36:24.220Z,14.13
2022-12-12T11:38:56.446Z,12.43
2022-12-12T11:41:24.074Z,13.15
2022-12-12T11:43:51.420Z,14.95
2022-12-12T11:46:20.636Z,14.25
2022-12-12T11:48:48.166Z,17.58
2022-12-12T11:51:30.490Z,15.90
2022-12-12T11:53:58.898Z,13.93
2022-12-12T11:56:30.479Z,15.05
2022-12-12T11:59:14.630Z,13.52
2022-12-12T12:01:51.212Z,15.65
2022-12-12T12:04:26.097Z,18.08
2022-12-12T12:07:05.718Z,15.02
2022-12-12T12:09:46.556Z,13.90
2022-12-12T12:12:17.361Z,14.65
2022-12-12T12:15:00.305Z,14.20
2022-12-12T12:17:47.952Z,15.32
2022-12-12T12:20:35.739Z,15.98
2022-12-12T12:23:15.482Z,13.77
2022-12-12T12:25:49.330Z,13.57
2022-12-12T12:28:16.765Z,13.77
2022-12-12T12:31:13.443Z,18.95
2022-12-12T12:33:53.210Z,16.90
2022-12-12T12:36:25.097Z,13.93
2022-12-12T12:39:05.562Z,14.70
2022-12-12T12:41:39.158Z,16.05
2022-12-12T12:44:07.412Z,14.93
2022-12-12T12:46:41.322Z,17.08
2022-12-12T12:49:28.737Z,15.93
2022-12-12T12:52:04.152Z,15.95
2022-12-12T12:54:33.762Z,17.75
2022-12-12T12:57:20.365Z,17.70
2022-12-12T13:00:09.998Z,15.85
2022-12-12T13:02:46.755Z,17.48
2022-12-12T13:05:26.214Z,16.85
2022-12-12T13:08:13.077Z,15.93
2022-12-12T13:10:47.653Z,19.40
2022-12-12T13:13:38.875Z,18.27
2022-12-12T13:16:11.982Z,15.68
2022-12-12T13:18:45.736Z,18.23
2022-12-12T13:21:32.212Z,19.77
2022-12-12T13:23:59.649Z,17.40
2022-12-12T13:26:41.777Z,18.45
2022-12-12T13:29:27.792Z,18.05
2022-12-12T13:32:10.376Z,19.98
2022-12-12T13:34:39.908Z,17.60
2022-12-12T13:37:07.799Z,18.23
2022-12-12T13:39:37.577Z,18.45
2022-12-12T13:42:06.219Z,21.40
2022-12-12T13:44:47.307Z,27.13
2022-12-12T13:47:14.710Z,21.98
2022-12-12T13:49:42.180Z,21.70
2022-12-12T13:52:21.707Z,19.08
2022-12-12T13:54:49.330Z,17.75
2022-12-12T13:57:37.004Z,17.90
2022-12-12T14:00:04.406Z,19.73
2022-12-12T14:02:41.829Z,18.02
2022-12-12T14:05:23.959Z,18.90
2022-12-12T14:07:53.001Z,19.05
2022-12-12T14:10:25.425Z,17.17
2022-12-12T14:12:53.227Z,18.88
2022-12-12T14:15:20.936Z,17.40
2022-12-12T14:18:06.277Z,16.00
2022-12-12T14:20:39.063Z,15.45
2022-12-12T14:23:06.522Z,13.65
2022-12-12T14:25:35.606Z,18.95
2022-12-12T14:28:23.278Z,22.80
2022-12-12T14:30:58.489Z,19.88
2022-12-12T14:35:56.167Z,15.45
2022-12-12T14:38:31.006Z,18.02
2022-12-12T14:41:02.351Z,20.23
2022-12-12T14:43:38.010Z,21.33
2022-12-12T14:46:05.838Z,20.77
2022-12-12T14:48:34.101Z,19.20
2022-12-12T14:51:04.776Z,16.27
2022-12-12T14:53:32.343Z,20.70
2022-12-12T14:56:01.695Z,16.27
2022-12-12T14:58:31.045Z,15.20
2022-12-12T15:01:00.517Z,16.40
2022-12-12T15:03:47.401Z,10.65
2022-12-12T15:06:26.883Z,13.15
2022-12-12T15:08:54.740Z,10.20
2022-12-12T15:11:24.202Z,10.65
2022-12-12T15:13:51.731Z,10.15
2022-12-12T15:16:19.884Z,10.70
2022-12-12T15:18:48.115Z,11.30
2022-12-12T15:21:16.290Z,10.05
2022-12-12T15:23:43.777Z,11.27
2022-12-12T15:26:17.058Z,10.95
2022-12-12T15:28:45.781Z,12.50
2022-12-12T15:31:19.243Z,10.90
2022-12-12T15:33:47.976Z,10.57
2022-12-12T15:36:20.748Z,10.38
2022-12-12T15:39:02.750Z,11.98
2022-12-12T15:41:30.338Z,14.10
2022-12-12T15:43:58.149Z,12.65
2022-12-12T15:46:25.739Z,11.32
2022-12-12T15:48:53.159Z,13.80
2022-12-12T15:51:25.071Z,13.20
2022-12-12T15:53:55.413Z,12.23
2022-12-12T15:56:23.006Z,15.40
2022-12-12T15:58:54.756Z,11.50
2022-12-12T16:01:28.268Z,14.63
2022-12-12T16:03:55.821Z,12.50
2022-12-12T16:06:25.036Z,14.18
2022-12-12T16:09:01.322Z,13.65
2022-12-12T16:11:33.234Z,12.88
2022-12-12T16:14:00.765Z,14.73
2022-12-12T16:16:45.471Z,14.73
2022-12-12T16:19:38.956Z,12.73
2022-12-12T16:22:08.965Z,12.05
2022-12-12T16:24:45.594Z,11.93
2022-12-12T16:27:13.094Z,12.48
2022-12-12T16:29:40.493Z,12.35
2022-12-12T16:32:07.993Z,14.02
2022-12-12T16:34:35.363Z,15.18
2022-12-12T16:37:02.834Z,15.55
2022-12-12T16:39:30.297Z,14.57
2022-12-12T16:41:57.819Z,17.13
2022-12-12T16:44:25.199Z,13.20
2022-12-12T16:46:52.730Z,14.45
2022-12-12T16:49:20.094Z,14.57
2022-12-12T16:51:47.643Z,15.35
2022-12-12T16:54:16.947Z,15.30
2022-12-12T16:56:50.554Z,15.18
2022-12-12T16:59:18.359Z,15.50
2022-12-12T17:01:46.086Z,14.85
2022-12-12T17:04:21.055Z,15.93
2022-12-12T17:06:48.782Z,19.45
2022-12-12T17:09:16.489Z,17.60
2022-12-12T17:11:44.026Z,15.23
2022-12-12T17:14:16.895Z,17.33
2022-12-12T17:16:44.436Z,16.80
2022-12-12T17:19:11.844Z,19.55
2022-12-12T17:21:39.335Z,20.13
2022-12-12T17:24:07.198Z,18.45
2022-12-12T17:26:35.340Z,18.58
2022-12-12T17:29:03.250Z,22.17
2022-12-12T17:31:30.958Z,20.23
2022-12-12T17:33:59.295Z,21.50
2022-12-12T17:36:27.266Z,19.05
2022-12-12T17:38:54.703Z,20.55
2022-12-12T17:41:22.211Z,19.17
2022-12-12T17:43:55.231Z,18.80
2022-12-12T17:46:23.786Z,17.98
2022-12-12T17:48:53.039Z,18.52
2022-12-12T17:51:23.350Z,17.33
2022-12-12T17:53:52.577Z,17.05
2022-12-12T17:56:21.603Z,17.00
2022-12-12T17:58:49.792Z,16.92
2022-12-12T18:01:18.633Z,14.55
2022-12-12T18:03:46.358Z,14.38
2022-12-12T18:06:14.370Z,14.90
2022-12-12T18:08:42.033Z,15.05
2022-12-12T18:11:10.450Z,14.80
2022-12-12T18:13:38.940Z,16.40
2022-12-12T18:16:07.413Z,16.30
2022-12-12T18:18:35.289Z,15.27
2022-12-12T18:21:03.850Z,14.25
2022-12-12T18:23:31.423Z,16.67
2022-12-12T18:26:02.791Z,15.60
2022-12-12T18:28:30.203Z,16.33
2022-12-12T18:30:57.565Z,17.77
2022-12-12T18:33:26.292Z,17.88
2022-12-12T18:36:00.797Z,18.05
2022-12-12T18:38:28.666Z,18.20
2022-12-12T18:40:56.228Z,20.50
2022-12-12T18:43:25.677Z,19.00
2022-12-12T18:45:53.123Z,19.02
2022-12-12T18:48:20.657Z,17.52
2022-12-12T18:50:48.090Z,18.88
2022-12-12T18:53:16.543Z,20.25
2022-12-12T18:55:44.771Z,19.45
2022-12-12T18:58:13.485Z,18.92
2022-12-12T19:00:41.021Z,19.67
2022-12-12T19:03:08.949Z,18.27
2022-12-12T19:05:41.433Z,19.58
2022-12-12T19:08:09.327Z,18.40
2022-12-12T19:10:37.655Z,19.77
2022-12-12T19:13:05.343Z,19.30
2022-12-12T19:15:32.721Z,20.83
2022-12-12T19:18:00.142Z,18.77
2022-12-12T19:20:27.766Z,20.58
2022-12-12T19:22:56.492Z,22.02
2022-12-12T19:25:23.983Z,21.15
2022-12-12T19:27:51.406Z,20.45
2022-12-12T19:30:18.874Z,20.83
2022-12-12T19:32:49.026Z,22.08
2022-12-12T19:35:16.697Z,21.05
2022-12-12T19:37:44.111Z,21.65
2022-12-12T19:40:12.221Z,21.65
2022-12-12T19:42:40.125Z,22.00
2022-12-12T19:45:08.410Z,19.65
2022-12-12T19:47:35.841Z,20.77
2022-12-12T19:50:03.285Z,19.30
2022-12-12T19:52:30.776Z,20.35
2022-12-12T19:54:58.261Z,20.75
2022-12-12T19:57:26.472Z,21.58
2022-12-12T19:59:54.272Z,20.77
2022-12-12T20:02:21.953Z,19.85
2022-12-12T20:04:49.446Z,21.17
2022-12-12T20:07:16.838Z,22.13
2022-12-12T20:09:44.326Z,20.05
2022-12-12T20:12:11.701Z,22.27
2022-12-12T20:14:39.218Z,21.00
2022-12-12T20:17:06.705Z,21.60
2022-12-12T20:19:34.285Z,20.95
2022-12-12T20:22:02.761Z,20.38
2022-12-12T20:24:31.503Z,17.15
2022-12-12T20:26:59.731Z,19.88
2022-12-12T20:29:27.630Z,19.85
2022-12-12T20:31:55.113Z,21.77
2022-12-12T20:34:24.606Z,20.90
2022-12-12T20:36:55.092Z,19.00
2022-12-12T20:39:22.690Z,18.30
2022-12-12T20:41:51.128Z,19.27
2022-12-12T20:44:18.695Z,18.50
2022-12-12T20:46:47.202Z,19.80
2022-12-12T20:49:17.010Z,19.13
2022-12-12T20:51:55.289Z,18.10
2022-12-12T20:54:24.524Z,17.70
2022-12-12T20:56:52.512Z,17.05
2022-12-12T20:59:20.047Z,17.42
2022-12-12T21:01:47.818Z,17.85
2022-12-12T21:04:16.042Z,19.20
2022-12-12T21:06:44.750Z,19.55
2022-12-12T21:09:17.698Z,18.50
2022-12-12T21:11:47.123Z,17.47
2022-12-12T21:14:14.617Z,18.63
2022-12-12T21:16:42.090Z,17.65
2022-12-12T21:19:11.548Z,19.52
2022-12-12T21:21:39.962Z,21.58
2022-12-12T21:24:07.613Z,18.67
2022-12-12T21:26:35.301Z,20.80
2022-12-12T21:29:03.157Z,20.83
2022-12-12T21:31:31.996Z,20.52
2022-12-12T21:34:00.023Z,20.45
2022-12-12T21:36:28.261Z,20.75
2022-12-12T21:38:56.236Z,18.83
2022-12-12T21:41:24.326Z,21.70
2022-12-12T21:43:53.078Z,19.33
2022-12-12T21:46:21.665Z,18.52
2022-12-12T21:49:12.549Z,19.45
2022-12-12T21:51:40.811Z,19.77
2022-12-12T21:54:09.205Z,18.13
2022-12-12T21:56:36.738Z,17.88
2022-12-12T21:59:04.235Z,20.02
2022-12-12T22:01:32.440Z,20.23
2022-12-12T22:04:00.413Z,21.13
2022-12-12T22:06:30.547Z,18.98
2022-12-12T22:08:58.545Z,20.58
2022-12-12T22:11:40.262Z,18.55
2022-12-12T22:14:10.608Z,17.33
2022-12-12T22:16:38.077Z,17.75
2022-12-12T22:19:09.046Z,16.77
2022-12-12T22:21:36.665Z,18.35
2022-12-12T22:24:04.833Z,17.08
2022-12-12T22:26:36.594Z,17.63
2022-12-12T22:29:08.692Z,15.90
2022-12-12T22:31:37.673Z,16.60
2022-12-12T22:34:06.700Z,14.88
2022-12-12T22:36:35.166Z,14.57
2022-12-12T22:39:02.778Z,14.18
2022-12-12T22:41:30.528Z,15.35
2022-12-12T22:44:01.897Z,14.70
2022-12-12T22:46:29.888Z,13.27
2022-12-12T22:48:59.226Z,15.43
2022-12-12T22:51:28.737Z,15.02
2022-12-12T22:53:57.072Z,13.82
2022-12-12T22:56:24.681Z,13.57
2022-12-12T22:58:52.214Z,15.65
2022-12-12T23:01:20.496Z,14.00
2022-12-12T23:03:48.132Z,13.80
2022-12-12T23:06:17.413Z,15.95
2022-12-12T23:08:49.426Z,13.95
2022-12-12T23:11:16.937Z,13.15
2022-12-12T23:13:44.902Z,13.57
2022-12-12T23:16:16.674Z,13.23
2022-12-12T23:18:44.980Z,14.38
2022-12-12T23:21:16.689Z,14.05
2022-12-12T23:23:45.371Z,15.25
2022-12-12T23:26:17.064Z,13.43
2022-12-12T23:28:45.333Z,16.55
2022-12-12T23:31:23.155Z,13.57
2022-12-12T23:33:54.626Z,15.73
2022-12-12T23:36:22.346Z,13.57
2022-12-12T23:38:49.734Z,14.15
2022-12-12T23:41:17.437Z,13.90
2022-12-12T23:43:44.865Z,13.15
2022-12-12T23:46:28.713Z,14.02
2022-12-12T23:48:56.744Z,14.80
2022-12-12T23:51:24.980Z,17.08
2022-12-12T23:53:52.482Z,14.70
2022-12-12T23:56:20.574Z,12.52
2022-12-12T23:58:48.190Z,14.63
